Seven Seas Mariner — C6VV8 — position and weather

sailwx.info

Track history (hours):
 
Tides and Currents Weather Stations Pressure Air Temp Water Temp Dewpoint Dewpoint Depression Visibility Wind Speed Wind Dir Waves Ship Positions

Seven Seas Mariner

Last reported at 2017-Jun-19 07:32 UTC. Time now 2017-Jun-23 18:52 UTC.
Position N 58°20' W 136°07'.

Length 216 m; draft 7.2 m.

Type: Ship. MMSI: 311622000.

Date/timePositionNaut miles runAvg speedWind from/ knotsBaromVisibWave heightAir tempDewpointWater temp
2017-Jun-19 07:32N 58°20' W 136°07'119.3
2017-Jun-19 07:28N 58°20' W 136°05'  
2017-Jun-15 22:30N 51°46' W 129°31'918.3
2017-Jun-15 22:01N 51°40' W 129°20'918.1
2017-Jun-15 21:31N 51°34' W 129°10'918.6
2017-Jun-15 21:01N 51°28' W 128°59'918.5
2017-Jun-15 20:31N 51°21' W 128°48'918.3
2017-Jun-15 20:01N 51°15' W 128°37'918.1
2017-Jun-15 19:31N 51°10' W 128°26'12016.5
2017-Jun-15 12:12N 50°21' W 125°32'415.4
2017-Jun-15 11:59N 50°20' W 125°26'816.4
2017-Jun-15 11:30N 50°13' W 125°23'612.6
2017-Jun-15 11:00N 50°07' W 125°20'612.3
2017-Jun-15 10:30N 50°02' W 125°14'612.1
2017-Jun-15 10:00N 49°57' W 125°08'612.6
2017-Jun-15 09:30N 49°53' W 125°01'612.9
2017-Jun-15 09:01N 49°49' W 124°54'612.1
2017-Jun-15 08:31N 49°44' W 124°47'510.8
2017-Jun-15 08:00N 49°40' W 124°42'510.4
2017-Jun-15 07:30N 49°36' W 124°37'510.8
2017-Jun-15 07:00N 49°32' W 124°32'510.4
2017-Jun-15 06:30N 49°28' W 124°26'2810.5
2017-Jun-15 03:51N 49°21' W 123°44'410.6
2017-Jun-15 03:27N 49°21' W 123°38'510.8
2017-Jun-15 03:00N 49°20' W 123°30'510.8
2017-Jun-15 02:31N 49°19' W 123°22'510.4
2017-Jun-15 02:00N 49°19' W 123°14'5 9.5
2017-Jun-15 01:30N 49°18' W 123°07'1 2.3
2017-Jun-15 01:00N 49°17' W 123°07'0 0.0
2017-Jun-15 00:30N 49°17' W 123°07'0 0.0
2017-Jun-14 23:58N 49°17' W 123°07'0 0.0
2017-Jun-14 23:27N 49°17' W 123°07'0 0.0
2017-Jun-14 23:00N 49°17' W 123°07'0 0.0
2017-Jun-14 22:30N 49°17' W 123°07'0 0.0
2017-Jun-14 22:00N 49°17' W 123°07'0 0.0
2017-Jun-14 21:30N 49°17' W 123°07'0 0.0
2017-Jun-14 20:59N 49°17' W 123°07'0 0.0
2017-Jun-14 20:29N 49°17' W 123°07'0 0.0
2017-Jun-14 19:59N 49°17' W 123°07'0 0.0
2017-Jun-14 19:29N 49°17' W 123°07'0 0.0
2017-Jun-14 18:59N 49°17' W 123°07'0 0.0
2017-Jun-14 18:28N 49°17' W 123°07'0 0.0
2017-Jun-14 17:58N 49°17' W 123°07'0 0.0
2017-Jun-14 17:28N 49°17' W 123°07'0 0.0
2017-Jun-14 16:58N 49°17' W 123°07'0 0.0
2017-Jun-14 16:31N 49°17' W 123°07'0 0.0
2017-Jun-14 16:00N 49°17' W 123°07'0 0.0
2017-Jun-14 15:30N 49°17' W 123°07'0 0.0
2017-Jun-14 15:00N 49°17' W 123°07'0 0.0
2017-Jun-14 14:30N 49°17' W 123°07'1 0.6
2017-Jun-14 13:30N 49°18' W 123°06'3 5.8
2017-Jun-14 13:00N 49°19' W 123°10'4 8.1
2017-Jun-14 12:30N 49°18' W 123°16'511.0
2017-Jun-14 12:00N 49°18' W 123°25'510.3
2017-Jun-14 11:30N 49°15' W 123°32'3 6.6
2017-Jun-14 11:00N 49°14' W 123°36'3 6.1
2017-Jun-14 10:30N 49°14' W 123°41'4 5.8
2017-Jun-14 09:51N 49°15' W 123°47'2 5.2
2017-Jun-14 09:30N 49°16' W 123°49'3 5.1
2017-Jun-14 08:59N 49°16' W 123°53'3 5.2
2017-Jun-14 08:22N 49°18' W 123°58'3 7.0
2017-Jun-14 07:56N 49°19' W 124°02'6 7.5
2017-Jun-14 07:11N 49°25' W 124°01'18 7.2
2017-Jun-14 04:45N 49°21' W 123°34'3 7.1
2017-Jun-14 04:23N 49°22' W 123°30'3 7.5
2017-Jun-14 03:55N 49°24' W 123°25'3 7.9
2017-Jun-14 03:30N 49°25' W 123°21'2 4.0
2017-Jun-14 02:58N 49°24' W 123°18'2 3.9
2017-Jun-14 02:30N 49°23' W 123°18'4 8.2
2017-Jun-14 02:00N 49°19' W 123°18'4 8.8
2017-Jun-14 01:30N 49°14' W 123°19'5 9.7
2017-Jun-14 01:00N 49°09' W 123°21'510.4
2017-Jun-14 00:30N 49°04' W 123°22'510.6
2017-Jun-14 00:00N 49°01' W 123°16'611.7
2017-Jun-13 23:30N 48°57' W 123°09'611.0
2017-Jun-13 23:00N 48°53' W 123°03'510.9
2017-Jun-13 22:30N 48°48' W 122°59'713.4
2017-Jun-13 22:00N 48°44' W 123°07'612.3
2017-Jun-13 21:30N 48°41' W 123°15'612.8
2017-Jun-13 21:00N 48°35' W 123°12'611.4
2017-Jun-13 20:30N 48°29' W 123°10'510.3
2017-Jun-13 20:00N 48°24' W 123°12'611.5
2017-Jun-13 19:30N 48°22' W 123°20'4 8.0
2017-Jun-13 19:00N 48°25' W 123°24'1 1.1
2017-Jun-13 18:30N 48°24' W 123°24'1 2.1
2017-Jun-13 18:00N 48°23' W 123°24'611.8
2017-Jun-13 17:31N 48°24' W 123°15'815.4
2017-Jun-13 17:01N 48°32' W 123°13'1020.7
2017-Jun-13 16:30N 48°42' W 123°15'918.4
2017-Jun-13 16:00N 48°46' W 123°03'713.5
2017-Jun-13 15:31N 48°52' W 123°06'1020.6
2017-Jun-13 15:00N 48°59' W 123°18'2019.8
2017-Jun-13 14:00N 49°13' W 123°41'1020.0
2017-Jun-13 13:29N 49°17' W 123°55'2020.1
2017-Jun-13 12:28N 49°28' W 124°22'1020.4
2017-Jun-13 12:00N 49°34' W 124°33'1020.7
2017-Jun-13 11:31N 49°41' W 124°44'1020.2
2017-Jun-13 11:01N 49°48' W 124°55'1019.6
2017-Jun-13 10:30N 49°55' W 125°06'816.4
2017-Jun-13 10:01N 50°02' W 125°13'713.8
2017-Jun-13 09:30N 50°07' W 125°20'611.4
2017-Jun-13 09:00N 50°13' W 125°23'5 9.6
2017-Jun-13 08:30N 50°17' W 125°25'11 8.1
2017-Jun-13 07:06N 50°22' W 125°41'410.5
2017-Jun-13 06:45N 50°22' W 125°46'3612.0
2017-Jun-13 03:43N 50°33' W 126°41'510.1
2017-Jun-13 03:13N 50°37' W 126°46'311.7
2017-Jun-13 03:00N 50°39' W 126°49'611.4
2017-Jun-13 02:30N 50°42' W 126°56'510.7
2017-Jun-13 01:59N 50°44' W 127°04'510.8
2017-Jun-13 01:30N 50°46' W 127°12'510.6
2017-Jun-13 00:59N 50°48' W 127°20'510.4
2017-Jun-13 00:30N 50°50' W 127°27'510.2
2017-Jun-13 00:00N 50°52' W 127°34'713.6
2017-Jun-12 23:31N 50°56' W 127°43'713.7
2017-Jun-12 23:00N 51°00' W 127°52'917.8
2017-Jun-12 22:29N 51°04' W 128°06'919.9
2017-Jun-12 22:00N 51°08' W 128°19'1019.9
2017-Jun-12 21:30N 51°13' W 128°33'1019.8
2017-Jun-12 21:00N 51°20' W 128°45'1020.0
2017-Jun-12 20:30N 51°26' W 128°57'1019.8
2017-Jun-12 20:00N 51°34' W 129°08'1019.8
2017-Jun-12 19:30N 51°41' W 129°19'7 4.7
2017-Jun-12 18:00N 51°42' W 129°30'   360 / 201018.6 5.4 13.011.313.0
Track history (hours):
 
Tides and Currents Weather Stations Pressure Air Temp Water Temp Dewpoint Dewpoint Depression Visibility Wind Speed Wind Dir Waves Ship Positions

Seven Seas Mariner

Last reported at 2017-Jun-19 07:32 UTC. Time now 2017-Jun-23 18:52 UTC.
Position N 58°20' W 136°07'.

Length 216 m; draft 7.2 m.

Type: Ship. MMSI: 311622000.

Date/timePositionNaut miles runAvg speedWind from/ knotsBaromVisibWave heightAir tempDewpointWater temp
2017-Jun-19 07:32N 58°20' W 136°07'119.3
2017-Jun-19 07:28N 58°20' W 136°05'  
2017-Jun-15 22:30N 51°46' W 129°31'918.3
2017-Jun-15 22:01N 51°40' W 129°20'918.1
2017-Jun-15 21:31N 51°34' W 129°10'918.6
2017-Jun-15 21:01N 51°28' W 128°59'918.5
2017-Jun-15 20:31N 51°21' W 128°48'918.3
2017-Jun-15 20:01N 51°15' W 128°37'918.1
2017-Jun-15 19:31N 51°10' W 128°26'12016.5
2017-Jun-15 12:12N 50°21' W 125°32'415.4
2017-Jun-15 11:59N 50°20' W 125°26'816.4
2017-Jun-15 11:30N 50°13' W 125°23'612.6
2017-Jun-15 11:00N 50°07' W 125°20'612.3
2017-Jun-15 10:30N 50°02' W 125°14'612.1
2017-Jun-15 10:00N 49°57' W 125°08'612.6
2017-Jun-15 09:30N 49°53' W 125°01'612.9
2017-Jun-15 09:01N 49°49' W 124°54'612.1
2017-Jun-15 08:31N 49°44' W 124°47'510.8
2017-Jun-15 08:00N 49°40' W 124°42'510.4
2017-Jun-15 07:30N 49°36' W 124°37'510.8
2017-Jun-15 07:00N 49°32' W 124°32'510.4
2017-Jun-15 06:30N 49°28' W 124°26'2810.5
2017-Jun-15 03:51N 49°21' W 123°44'410.6
2017-Jun-15 03:27N 49°21' W 123°38'510.8
2017-Jun-15 03:00N 49°20' W 123°30'510.8
2017-Jun-15 02:31N 49°19' W 123°22'510.4
2017-Jun-15 02:00N 49°19' W 123°14'5 9.5
2017-Jun-15 01:30N 49°18' W 123°07'1 2.3
2017-Jun-15 01:00N 49°17' W 123°07'0 0.0
2017-Jun-15 00:30N 49°17' W 123°07'0 0.0
2017-Jun-14 23:58N 49°17' W 123°07'0 0.0
2017-Jun-14 23:27N 49°17' W 123°07'0 0.0
2017-Jun-14 23:00N 49°17' W 123°07'0 0.0
2017-Jun-14 22:30N 49°17' W 123°07'0 0.0
2017-Jun-14 22:00N 49°17' W 123°07'0 0.0
2017-Jun-14 21:30N 49°17' W 123°07'0 0.0
2017-Jun-14 20:59N 49°17' W 123°07'0 0.0
2017-Jun-14 20:29N 49°17' W 123°07'0 0.0
2017-Jun-14 19:59N 49°17' W 123°07'0 0.0
2017-Jun-14 19:29N 49°17' W 123°07'0 0.0
2017-Jun-14 18:59N 49°17' W 123°07'0 0.0
2017-Jun-14 18:28N 49°17' W 123°07'0 0.0
2017-Jun-14 17:58N 49°17' W 123°07'0 0.0
2017-Jun-14 17:28N 49°17' W 123°07'0 0.0
2017-Jun-14 16:58N 49°17' W 123°07'0 0.0
2017-Jun-14 16:31N 49°17' W 123°07'0 0.0
2017-Jun-14 16:00N 49°17' W 123°07'0 0.0
2017-Jun-14 15:30N 49°17' W 123°07'0 0.0
2017-Jun-14 15:00N 49°17' W 123°07'0 0.0
2017-Jun-14 14:30N 49°17' W 123°07'1 0.6
2017-Jun-14 13:30N 49°18' W 123°06'3 5.8
2017-Jun-14 13:00N 49°19' W 123°10'4 8.1
2017-Jun-14 12:30N 49°18' W 123°16'511.0
2017-Jun-14 12:00N 49°18' W 123°25'510.3
2017-Jun-14 11:30N 49°15' W 123°32'3 6.6
2017-Jun-14 11:00N 49°14' W 123°36'3 6.1
2017-Jun-14 10:30N 49°14' W 123°41'4 5.8
2017-Jun-14 09:51N 49°15' W 123°47'2 5.2
2017-Jun-14 09:30N 49°16' W 123°49'3 5.1
2017-Jun-14 08:59N 49°16' W 123°53'3 5.2
2017-Jun-14 08:22N 49°18' W 123°58'3 7.0
2017-Jun-14 07:56N 49°19' W 124°02'6 7.5
2017-Jun-14 07:11N 49°25' W 124°01'18 7.2
2017-Jun-14 04:45N 49°21' W 123°34'3 7.1
2017-Jun-14 04:23N 49°22' W 123°30'3 7.5
2017-Jun-14 03:55N 49°24' W 123°25'3 7.9
2017-Jun-14 03:30N 49°25' W 123°21'2 4.0
2017-Jun-14 02:58N 49°24' W 123°18'2 3.9
2017-Jun-14 02:30N 49°23' W 123°18'4 8.2
2017-Jun-14 02:00N 49°19' W 123°18'4 8.8
2017-Jun-14 01:30N 49°14' W 123°19'5 9.7
2017-Jun-14 01:00N 49°09' W 123°21'510.4
2017-Jun-14 00:30N 49°04' W 123°22'510.6
2017-Jun-14 00:00N 49°01' W 123°16'611.7
2017-Jun-13 23:30N 48°57' W 123°09'611.0
2017-Jun-13 23:00N 48°53' W 123°03'510.9
2017-Jun-13 22:30N 48°48' W 122°59'713.4
2017-Jun-13 22:00N 48°44' W 123°07'612.3
2017-Jun-13 21:30N 48°41' W 123°15'612.8
2017-Jun-13 21:00N 48°35' W 123°12'611.4
2017-Jun-13 20:30N 48°29' W 123°10'510.3
2017-Jun-13 20:00N 48°24' W 123°12'611.5
2017-Jun-13 19:30N 48°22' W 123°20'4 8.0
2017-Jun-13 19:00N 48°25' W 123°24'1 1.1
2017-Jun-13 18:30N 48°24' W 123°24'1 2.1
2017-Jun-13 18:00N 48°23' W 123°24'611.8
2017-Jun-13 17:31N 48°24' W 123°15'815.4
2017-Jun-13 17:01N 48°32' W 123°13'1020.7
2017-Jun-13 16:30N 48°42' W 123°15'918.4
2017-Jun-13 16:00N 48°46' W 123°03'713.5
2017-Jun-13 15:31N 48°52' W 123°06'1020.6
2017-Jun-13 15:00N 48°59' W 123°18'2019.8
2017-Jun-13 14:00N 49°13' W 123°41'1020.0
2017-Jun-13 13:29N 49°17' W 123°55'2020.1
2017-Jun-13 12:28N 49°28' W 124°22'1020.4
2017-Jun-13 12:00N 49°34' W 124°33'1020.7
2017-Jun-13 11:31N 49°41' W 124°44'1020.2
2017-Jun-13 11:01N 49°48' W 124°55'1019.6
2017-Jun-13 10:30N 49°55' W 125°06'816.4
2017-Jun-13 10:01N 50°02' W 125°13'713.8
2017-Jun-13 09:30N 50°07' W 125°20'611.4
2017-Jun-13 09:00N 50°13' W 125°23'5 9.6
2017-Jun-13 08:30N 50°17' W 125°25'11 8.1
2017-Jun-13 07:06N 50°22' W 125°41'410.5
2017-Jun-13 06:45N 50°22' W 125°46'3612.0
2017-Jun-13 03:43N 50°33' W 126°41'510.1
2017-Jun-13 03:13N 50°37' W 126°46'311.7
2017-Jun-13 03:00N 50°39' W 126°49'611.4
2017-Jun-13 02:30N 50°42' W 126°56'510.7
2017-Jun-13 01:59N 50°44' W 127°04'510.8
2017-Jun-13 01:30N 50°46' W 127°12'510.6
2017-Jun-13 00:59N 50°48' W 127°20'510.4
2017-Jun-13 00:30N 50°50' W 127°27'510.2
2017-Jun-13 00:00N 50°52' W 127°34'713.6
2017-Jun-12 23:31N 50°56' W 127°43'713.7
2017-Jun-12 23:00N 51°00' W 127°52'917.8
2017-Jun-12 22:29N 51°04' W 128°06'919.9
2017-Jun-12 22:00N 51°08' W 128°19'1019.9
2017-Jun-12 21:30N 51°13' W 128°33'1019.8
2017-Jun-12 21:00N 51°20' W 128°45'1020.0
2017-Jun-12 20:30N 51°26' W 128°57'1019.8
2017-Jun-12 20:00N 51°34' W 129°08'1019.8
2017-Jun-12 19:30N 51°41' W 129°19'7 4.7
2017-Jun-12 18:00N 51°42' W 129°30'   360 / 201018.6 5.4 13.011.313.0

Dump ship's entire track history